Time;durP1;ratioP1;P1;durP2;ratioP2;P2;SDS_P1;SDS_P2;PMS_P1;PMS_P2;Temp;Humidity;BMP_temperature;BMP_pressure;BME280_temperature;BME280_humidity;BME280_pressure;Samples;Min_cycle;Max_cycle;Signal;HPM_P1;HPM_P2
2022/04/15 00:00:02;;;;;;;37.57;29.60;;;;;;;10.55;100.00;96838.28;4860122;29;20481;-76
2022/04/15 00:02:37;;;;;;;36.43;30.33;;;;;;;10.42;100.00;96807.53;4862027;29;20492;-77
2022/04/15 00:05:29;;;;;;;36.43;27.73;;;;;;;10.71;100.00;96857.88;4860635;29;20453;-77
2022/04/15 00:07:52;;;;;;;33.60;28.90;;;;;;;10.79;100.00;96858.94;4854073;29;20443;-77
2022/04/15 00:10:19;;;;;;;35.53;30.33;;;;;;;10.55;100.00;96825.88;4855509;29;20557;-76
2022/04/15 00:12:46;;;;;;;38.33;31.10;;;;;;;10.74;100.00;96857.25;4859882;29;20532;-76
2022/04/15 00:15:14;;;;;;;37.20;30.27;;;;;;;10.31;100.00;96802.56;4847558;29;21019;-76
2022/04/15 00:17:41;;;;;;;37.63;30.53;;;;;;;10.65;100.00;96867.06;4859848;29;20497;-76
2022/04/15 00:20:08;;;;;;;37.97;28.50;;;;;;;10.54;100.00;96816.34;4861149;29;20457;-76
2022/04/15 00:22:35;;;;;;;38.77;29.53;;;;;;;10.43;100.00;96828.38;4859891;29;20938;-77
2022/04/15 00:25:01;;;;;;;34.53;30.07;;;;;;;10.65;100.00;96849.31;4859613;29;20448;-76
2022/04/15 00:27:28;;;;;;;34.60;27.93;;;;;;;10.65;100.00;96849.31;4859714;29;20957;-76
2022/04/15 00:29:55;;;;;;;36.87;30.90;;;;;;;10.39;100.00;96824.75;4859565;29;20500;-76
2022/04/15 00:32:21;;;;;;;36.53;31.80;;;;;;;10.67;100.00;96867.50;4859978;29;20618;-76
2022/04/15 00:34:48;;;;;;;35.83;29.43;;;;;;;10.41;100.00;96849.03;4861110;29;20477;-76
2022/04/15 00:37:15;;;;;;;37.43;30.17;;;;;;;10.29;100.00;96827.75;4859668;29;20445;-76
2022/04/15 00:39:45;;;;;;;36.60;29.83;;;;;;;10.22;100.00;96822.91;4844293;29;20469;-76
2022/04/15 00:42:12;;;;;;;37.40;30.43;;;;;;;10.54;100.00;96857.88;4861037;29;20528;-77
2022/04/15 00:44:39;;;;;;;39.27;32.17;;;;;;;10.47;100.00;96860.22;4859677;29;20541;-77
2022/04/15 00:47:23;;;;;;;39.67;32.10;;;;;;;10.45;100.00;96854.47;4860587;29;20435;-77
2022/04/15 00:49:50;;;;;;;39.90;30.20;;;;;;;10.22;100.00;96840.63;4859322;29;20482;-76
2022/04/15 00:52:20;;;;;;;44.90;34.33;;;;;;;10.29;100.00;96873.47;4859053;29;20441;-77
2022/04/15 00:54:51;;;;;;;37.60;33.50;;;;;;;10.41;100.00;96854.31;4860487;29;20472;-76
2022/04/15 00:57:23;;;;;;;35.63;31.40;;;;;;;9.57;100.00;96754.31;4859380;29;20455;-77
2022/04/15 00:59:51;;;;;;;40.33;32.50;;;;;;;10.34;100.00;96827.59;4859037;29;20921;-78
2022/04/15 01:02:18;;;;;;;48.47;34.30;;;;;;;10.13;100.00;96792.25;4859149;29;20599;-77
2022/04/15 01:04:46;;;;;;;41.20;30.40;;;;;;;10.48;100.00;96854.63;4859426;29;20445;-77
2022/04/15 01:07:16;;;;;;;38.67;30.93;;;;;;;10.34;100.00;96817.78;4856706;29;20442;-77
2022/04/15 01:09:44;;;;;;;34.80;28.93;;;;;;;10.48;100.00;96830.06;4835190;29;20520;-77
2022/04/15 01:12:12;;;;;;;36.93;31.57;;;;;;;10.50;100.00;96852.44;4860192;29;20465;-77
2022/04/15 01:14:39;;;;;;;34.27;29.60;;;;;;;10.51;100.00;96846.06;4859014;29;21021;-77
2022/04/15 01:17:05;;;;;;;34.83;31.10;;;;;;;10.45;100.00;96833.34;4858886;29;20454;-76
2022/04/15 01:19:32;;;;;;;40.00;32.63;;;;;;;10.40;100.00;96846.69;4859958;29;20525;-76
2022/04/15 01:22:02;;;;;;;39.60;31.63;;;;;;;10.33;100.00;96844.53;4860334;29;21167;-77
2022/04/15 01:24:29;;;;;;;44.33;30.97;;;;;;;9.91;100.00;96783.41;4874853;29;20502;-76
2022/04/15 01:26:56;;;;;;;39.00;32.53;;;;;;;10.11;100.00;96839.34;4860709;29;20465;-77
2022/04/15 01:29:27;;;;;;;38.47;30.93;;;;;;;9.99;100.00;96819.59;4858926;29;20574;-76
2022/04/15 01:31:53;;;;;;;36.47;30.50;;;;;;;10.12;100.00;96830.34;4858781;29;20501;-76
2022/04/15 01:34:20;;;;;;;41.27;31.87;;;;;;;9.97;100.00;96837.63;4858896;29;20445;-76
2022/04/15 01:36:47;;;;;;;32.13;28.13;;;;;;;10.00;100.00;96830.94;4858898;29;20516;-76
2022/04/15 01:39:14;;;;;;;38.70;30.13;;;;;;;10.12;100.00;96856.75;4843539;29;20504;-77
2022/04/15 01:41:41;;;;;;;39.43;29.67;;;;;;;10.26;100.00;96865.34;4858666;29;20453;-76
2022/04/15 01:44:15;;;;;;;36.17;29.90;;;;;;;10.11;100.00;96834.84;4858534;29;20543;-76
2022/04/15 01:46:42;;;;;;;36.83;28.90;;;;;;;10.18;100.00;96821.97;4846811;29;20430;-76
2022/04/15 01:49:09;;;;;;;36.10;28.53;;;;;;;10.26;100.00;96839.69;4858094;29;20465;-76
2022/04/15 01:51:36;;;;;;;36.20;29.80;;;;;;;10.26;100.00;96834.41;4858227;29;21029;-76
2022/04/15 01:54:03;;;;;;;31.27;26.07;;;;;;;10.28;100.00;96857.88;4859429;29;20439;-76
2022/04/15 01:56:30;;;;;;;36.40;28.30;;;;;;;10.28;100.00;96871.91;4858212;29;20481;-76
2022/04/15 01:58:57;;;;;;;34.60;29.57;;;;;;;9.96;100.00;96828.16;4857809;29;20488;-76
2022/04/15 02:01:24;;;;;;;33.03;27.83;;;;;;;10.02;100.00;96850.72;4843228;29;20881;-77
2022/04/15 02:07:05;;;;;;;36.43;28.27;;;;;;;10.23;100.00;96864.09;4860541;29;20445;-76
2022/04/15 02:09:35;;;;;;;35.87;28.57;;;;;;;10.10;100.00;96835.94;4858156;29;20489;-77
2022/04/15 02:12:12;;;;;;;34.60;28.80;;;;;;;9.84;100.00;96829.84;4842695;29;20456;-77
2022/04/15 02:14:43;;;;;;;37.43;28.70;;;;;;;9.75;100.00;96837.78;4857879;29;20481;-76
2022/04/15 02:17:10;;;;;;;39.70;29.70;;;;;;;9.67;100.00;96841.94;4857856;29;20441;-77
2022/04/15 02:19:38;;;;;;;36.30;29.23;;;;;;;9.89;100.00;96872.75;4857914;29;20525;-77
2022/04/15 02:22:06;;;;;;;41.20;31.73;;;;;;;9.78;100.00;96868.84;4859162;29;20452;-76
2022/04/15 02:24:36;;;;;;;38.33;28.63;;;;;;;9.65;100.00;96849.38;4847219;29;20529;-77
2022/04/15 02:27:04;;;;;;;49.80;30.53;;;;;;;9.17;100.00;96802.66;4854686;29;20451;-76
2022/04/15 02:29:32;;;;;;;37.13;30.83;;;;;;;9.32;100.00;96842.91;4835859;29;20465;-76
2022/04/15 02:32:00;;;;;;;52.97;32.23;;;;;;;9.38;100.00;96879.41;4857888;29;20448;-77
2022/04/15 02:34:33;;;;;;;39.10;29.70;;;;;;;9.16;100.00;96853.84;4858938;29;20460;-77
2022/04/15 02:37:02;;;;;;;41.97;31.67;;;;;;;9.07;100.00;96839.06;4839287;29;20449;-76
2022/04/15 02:39:32;;;;;;;35.60;29.93;;;;;;;9.12;100.00;96852.13;4836973;29;21035;-76
2022/04/15 02:42:00;;;;;;;48.80;32.07;;;;;;;8.81;100.00;96813.38;4859024;29;20441;-76
2022/04/15 02:44:35;;;;;;;37.83;29.40;;;;;;;9.32;100.00;96882.47;4842337;29;21023;-76
2022/04/15 02:47:08;;;;;;;38.00;28.47;;;;;;;9.14;100.00;96882.41;4858685;29;20549;-76
2022/04/15 02:49:40;;;;;;;39.30;29.13;;;;;;;8.91;100.00;96841.31;4856368;29;20470;-76
2022/04/15 02:52:07;;;;;;;40.43;28.60;;;;;;;8.96;100.00;96864.16;4850003;29;20464;-76
2022/04/15 02:54:35;;;;;;;41.43;28.30;;;;;;;9.01;100.00;96879.84;4858966;29;20508;-76
2022/04/15 02:57:04;;;;;;;37.40;29.80;;;;;;;8.96;100.00;96874.72;4842759;29;20444;-76
2022/04/15 02:59:36;;;;;;;67.30;32.70;;;;;;;8.94;100.00;96893.44;4858144;29;20491;-76
2022/04/15 03:02:07;;;;;;;58.80;31.67;;;;;;;8.67;100.00;96883.03;4858005;29;20449;-76
2022/04/15 03:04:37;;;;;;;63.63;30.57;;;;;;;8.67;100.00;96875.91;4845827;29;20880;-76
2022/04/15 03:07:07;;;;;;;88.13;31.10;;;;;;;8.78;100.00;96900.94;4857901;29;20457;-76
2022/04/15 03:09:34;;;;;;;48.73;32.67;;;;;;;8.67;100.00;96883.03;4858539;29;20458;-77
2022/04/15 03:12:05;;;;;;;42.07;29.13;;;;;;;8.73;100.00;96885.25;4842410;29;20456;-77
2022/04/15 03:14:36;;;;;;;39.73;28.60;;;;;;;8.97;100.00;96913.97;4842695;29;20560;-77
2022/04/15 03:17:06;;;;;;;51.83;29.73;;;;;;;8.53;100.00;96862.00;4861142;29;20449;-76
2022/04/15 03:19:49;;;;;;;38.77;29.67;;;;;;;8.93;100.00;96893.75;4861098;29;20524;-77
2022/04/15 03:22:27;;;;;;;36.43;27.27;;;;;;;9.17;100.00;96902.13;4850208;29;20433;-77
2022/04/15 03:25:00;;;;;;;37.83;28.03;;;;;;;8.81;100.00;96889.03;4861080;29;20456;-77
2022/04/15 03:27:30;;;;;;;35.77;28.07;;;;;;;8.92;100.00;96903.53;4876561;29;20442;-77
2022/04/15 03:30:01;;;;;;;38.63;29.93;;;;;;;9.01;100.00;96916.78;4862385;29;20572;-77
2022/04/15 03:32:43;;;;;;;33.77;28.10;;;;;;;8.89;100.00;96919.94;4860688;29;20444;-76
2022/04/15 03:35:13;;;;;;;39.43;29.00;;;;;;;8.73;100.00;96893.16;4848231;29;20470;-76
2022/04/15 03:37:46;;;;;;;40.20;30.37;;;;;;;8.92;100.00;96924.63;4862422;29;20433;-77
2022/04/15 03:40:18;;;;;;;35.63;27.37;;;;;;;9.07;100.00;96934.03;4860964;29;20460;-77
2022/04/15 03:42:47;;;;;;;39.37;29.00;;;;;;;8.83;100.00;96927.22;4862431;29;20934;-77
2022/04/15 03:45:22;;;;;;;40.90;29.83;;;;;;;8.91;100.00;96930.97;4860941;29;20501;-78
2022/04/15 03:47:56;;;;;;;41.73;29.47;;;;;;;9.01;100.00;96922.81;4863361;29;20428;-77
2022/04/15 03:50:26;;;;;;;39.60;29.50;;;;;;;8.98;100.00;96927.94;4863072;29;20454;-77
2022/04/15 03:52:56;;;;;;;49.87;30.57;;;;;;;8.89;100.00;96927.84;4862347;29;20566;-76
2022/04/15 03:55:35;;;;;;;34.63;27.00;;;;;;;8.86;100.00;96928.47;4849076;29;20528;-76
2022/04/15 03:58:13;;;;;;;38.30;27.10;;;;;;;8.66;100.00;96931.56;4854930;29;20434;-76
2022/04/15 04:00:48;;;;;;;35.70;26.27;;;;;;;8.73;100.00;96930.06;4851795;29;21060;-76
2022/04/15 04:03:20;;;;;;;40.10;28.77;;;;;;;8.40;100.00;96876.00;4877018;29;20492;-77
2022/04/15 04:05:50;;;;;;;32.50;25.80;;;;;;;8.62;100.00;96915.56;4858445;29;20462;-77
2022/04/15 04:08:29;;;;;;;36.07;24.80;;;;;;;8.67;100.00;96931.25;4841513;29;20908;-77
2022/04/15 04:10:59;;;;;;;41.93;25.63;;;;;;;8.21;100.00;96903.25;4856034;29;20433;-77
2022/04/15 04:13:30;;;;;;;37.30;25.40;;;;;;;8.40;100.00;96944.50;4866006;29;20451;-77
2022/04/15 04:15:58;;;;;;;33.13;26.40;;;;;;;8.12;100.00;96899.75;4865086;29;20468;-77
2022/04/15 04:18:34;;;;;;;42.10;26.10;;;;;;;8.27;100.00;96919.72;4866682;29;20437;-77
2022/04/15 04:21:04;;;;;;;39.53;26.80;;;;;;;8.47;100.00;96943.03;4846899;29;20470;-77
2022/04/15 04:23:54;;;;;;;55.50;28.40;;;;;;;8.33;100.00;96944.13;4866787;29;20460;-77
2022/04/15 04:26:30;;;;;;;59.87;32.97;;;;;;;8.12;100.00;96906.88;4866555;29;20457;-76
2022/04/15 04:29:06;;;;;;;43.17;29.33;;;;;;;8.47;100.00;96950.16;4865121;29;20488;-77
2022/04/15 04:31:38;;;;;;;47.90;29.27;;;;;;;8.39;100.00;96937.69;4855428;29;20448;-77
2022/04/15 04:34:14;;;;;;;49.33;28.33;;;;;;;8.21;100.00;96910.38;4870704;29;20445;-77
2022/04/15 04:36:44;;;;;;;36.97;24.83;;;;;;;8.57;100.00;96934.16;4868417;29;20473;-78
2022/04/15 04:39:12;;;;;;;42.07;26.90;;;;;;;8.65;100.00;96948.44;4861889;29;20473;-78
2022/04/15 04:41:46;;;;;;;38.83;26.23;;;;;;;8.65;100.00;96948.44;4870200;29;20460;-76
2022/04/15 04:44:23;;;;;;;46.80;26.60;;;;;;;8.60;100.00;96946.72;4854995;29;20484;-76
2022/04/15 04:46:54;;;;;;;34.47;25.07;;;;;;;8.87;100.00;96940.56;4883200;29;20430;-77
2022/04/15 04:49:28;;;;;;;28.97;21.53;;;;;;;9.08;100.00;96957.47;4870607;29;20484;-76
2022/04/15 04:51:58;;;;;;;33.40;22.57;;;;;;;9.06;100.00;96959.63;4875001;29;20421;-76
2022/04/15 04:54:43;;;;;;;29.43;23.40;;;;;;;8.69;100.00;96937.03;4865145;29;20445;-76
2022/04/15 04:57:33;;;;;;;32.83;24.47;;;;;;;8.42;100.00;96935.25;4862009;29;20460;-77
2022/04/15 05:00:03;;;;;;;35.07;24.30;;;;;;;8.37;100.00;96926.66;4868257;29;20468;-77
2022/04/15 05:02:36;;;;;;;28.80;22.60;;;;;;;8.88;100.00;96957.94;4870292;29;20430;-77
2022/04/15 05:05:19;;;;;;;35.43;22.80;;;;;;;9.06;100.00;96956.19;4863935;29;20488;-78
2022/04/15 05:07:51;;;;;;;30.23;22.30;;;;;;;8.95;100.00;96934.59;4858926;29;20458;-77
2022/04/15 05:10:26;;;;;;;30.73;24.13;;;;;;;9.05;100.00;96957.28;4869839;29;20455;-77
2022/04/15 05:13:26;;;;;;;31.10;24.33;;;;;;;8.92;100.00;96951.00;4872219;29;20431;-78
2022/04/15 05:15:54;;;;;;;31.00;23.97;;;;;;;8.97;100.00;96961.44;4859825;29;20498;-78
2022/04/15 05:18:32;;;;;;;27.50;21.90;;;;;;;8.87;100.00;96943.22;4847398;29;20451;-77
2022/04/15 05:21:25;;;;;;;23.73;20.60;;;;;;;8.74;100.00;96925.59;4868411;29;20452;-78
2022/04/15 05:24:15;;;;;;;33.40;23.73;;;;;;;8.80;100.00;96921.75;4850986;29;20410;-78
2022/04/15 05:27:08;;;;;;;27.17;21.90;;;;;;;8.95;100.00;96971.50;4866032;29;20992;-78
2022/04/15 05:29:41;;;;;;;29.80;22.00;;;;;;;8.61;100.00;96953.53;4856367;29;20491;-78
2022/04/15 05:32:19;;;;;;;23.90;19.53;;;;;;;8.59;100.00;96968.88;4871411;29;20428;-78
2022/04/15 05:35:10;;;;;;;26.67;21.97;;;;;;;8.65;100.00;96972.97;4869346;29;20450;-78
2022/04/15 05:37:45;;;;;;;27.07;20.87;;;;;;;8.58;100.00;96970.75;4848724;29;20461;-78
2022/04/15 05:40:22;;;;;;;30.17;21.90;;;;;;;8.29;100.00;96951.84;4866751;29;20476;-78
2022/04/15 05:42:57;;;;;;;33.80;24.70;;;;;;;8.35;100.00;96979.66;4871213;29;20488;-78
2022/04/15 05:45:26;;;;;;;39.57;23.93;;;;;;;8.09;100.00;96970.69;4855201;29;20456;-77
2022/04/15 05:48:07;;;;;;;32.60;22.23;;;;;;;8.17;100.00;96986.59;4855197;29;20517;-78
2022/04/15 05:50:42;;;;;;;40.60;22.77;;;;;;;7.92;100.00;96974.69;4865151;29;20618;-78
2022/04/15 05:53:14;;;;;;;39.83;22.50;;;;;;;7.92;100.00;96952.84;4839969;29;20477;-78
2022/04/15 05:55:51;;;;;;;34.40;23.50;;;;;;;8.18;100.00;96950.50;4869890;29;20551;-78
2022/04/15 05:58:36;;;;;;;36.73;23.67;;;;;;;8.35;100.00;96958.59;4865615;29;20481;-77
2022/04/15 06:01:10;;;;;;;38.03;20.97;;;;;;;8.69;100.00;96975.78;4865732;29;20448;-78
2022/04/15 06:04:02;;;;;;;31.37;21.10;;;;;;;8.85;100.00;96995.47;4879919;29;20447;-77
2022/04/15 06:06:37;;;;;;;28.97;20.90;;;;;;;8.70;100.00;97001.84;4867890;29;20453;-77
2022/04/15 06:09:14;;;;;;;39.60;20.70;;;;;;;8.23;100.00;96961.69;4855679;29;20531;-77
2022/04/15 06:11:49;;;;;;;35.13;22.00;;;;;;;8.21;100.00;96979.66;4865353;29;20457;-78
2022/04/15 06:14:23;;;;;;;25.03;20.60;;;;;;;8.17;100.00;96986.59;4865429;29;20882;-78
2022/04/15 06:16:55;;;;;;;26.40;21.60;;;;;;;8.48;100.00;97007.06;4852044;29;20572;-78
2022/04/15 06:19:27;;;;;;;28.60;23.83;;;;;;;8.43;100.00;97000.06;4868077;29;20483;-77
2022/04/15 06:22:05;;;;;;;27.20;21.77;;;;;;;8.41;100.00;97006.66;4863669;29;20457;-77
2022/04/15 06:24:52;;;;;;;24.23;18.70;;;;;;;7.95;100.00;96950.41;4865351;29;20429;-78
2022/04/15 06:27:28;;;;;;;31.77;20.77;;;;;;;8.51;100.00;97001.97;4862883;29;20474;-78
2022/04/15 06:29:55;;;;;;;29.13;21.87;;;;;;;8.36;100.00;96967.25;4880719;29;20468;-77
2022/04/15 06:32:23;;;;;;;31.43;23.90;;;;;;;8.76;100.00;97011.19;4863105;29;20445;-77
2022/04/15 06:35:16;;;;;;;26.40;20.57;;;;;;;8.77;100.00;96994.31;4864520;29;20515;-78
2022/04/15 06:37:56;;;;;;;23.70;19.87;;;;;;;8.96;100.00;97019.75;4869799;29;21172;-78
2022/04/15 06:40:40;;;;;;;24.47;20.63;;;;;;;8.71;100.00;96998.16;4866592;29;20984;-78
2022/04/15 06:43:48;;;;;;;25.07;19.10;;;;;;;8.57;100.00;96986.84;4848072;29;20933;-78
2022/04/15 06:46:24;;;;;;;19.00;16.80;;;;;;;8.50;100.00;96973.28;4870702;29;21056;-78
2022/04/15 06:48:52;;;;;;;21.83;18.13;;;;;;;8.38;100.00;96976.44;4872500;29;20537;-77
2022/04/15 06:51:22;;;;;;;26.87;18.97;;;;;;;8.48;100.00;96972.81;4870103;29;20439;-78
2022/04/15 06:53:57;;;;;;;24.73;21.70;;;;;;;8.74;100.00;97004.69;4865349;29;20978;-77
2022/04/15 06:56:27;;;;;;;25.23;19.07;;;;;;;8.73;100.00;96988.06;4852316;29;21042;-78
2022/04/15 06:58:57;;;;;;;22.90;19.63;;;;;;;8.89;100.00;96980.59;4865482;29;20476;-78
2022/04/15 07:01:25;;;;;;;22.53;18.63;;;;;;;8.84;100.00;96988.63;4867608;29;20429;-78
2022/04/15 07:04:00;;;;;;;26.57;20.07;;;;;;;9.20;100.00;97012.31;4868443;29;20443;-78
2022/04/15 07:06:29;;;;;;;23.90;18.57;;;;;;;9.44;100.00;97006.75;4866082;29;20511;-78
2022/04/15 07:08:56;;;;;;;24.27;20.67;;;;;;;9.30;100.00;96971.72;4880870;29;20544;-78
2022/04/15 07:11:25;;;;;;;22.87;19.67;;;;;;;9.76;100.00;96980.06;4865423;29;20439;-78
2022/04/15 07:13:53;;;;;;;20.90;18.73;;;;;;;10.22;100.00;97013.19;4864883;29;20440;-78
2022/04/15 07:16:28;;;;;;;18.73;16.87;;;;;;;10.03;100.00;96983.56;4864993;29;20472;-79
2022/04/15 07:19:08;;;;;;;19.10;15.57;;;;;;;10.12;100.00;97004.72;4843768;29;20473;-78
2022/04/15 07:21:40;;;;;;;20.53;17.00;;;;;;;9.60;100.00;96941.13;4861335;29;20487;-78
2022/04/15 07:24:20;;;;;;;24.20;19.10;;;;;;;9.90;100.00;97000.31;4863590;29;20500;-78
2022/04/15 07:27:05;;;;;;;19.97;17.43;;;;;;;9.93;100.00;97015.53;4866469;29;20435;-78
2022/04/15 07:29:38;;;;;;;23.00;18.33;;;;;;;10.14;100.00;97013.13;4864874;29;20844;-78
2022/04/15 07:32:09;;;;;;;20.93;17.80;;;;;;;10.05;100.00;97027.09;4866369;29;20456;-78
2022/04/15 07:34:36;;;;;;;18.73;16.80;;;;;;;10.04;100.00;97028.19;4878768;29;20897;-78
2022/04/15 07:37:07;;;;;;;18.33;16.20;;;;;;;10.44;100.00;97012.31;4868558;29;20564;-78
2022/04/15 07:39:38;;;;;;;19.50;16.37;;;;;;;10.53;100.00;97005.16;4862744;29;20522;-79
2022/04/15 07:42:19;;;;;;;17.83;15.87;;;;;;;11.01;100.00;97009.56;4864258;29;20456;-78
2022/04/15 07:44:47;;;;;;;17.33;15.23;;;;;;;10.80;100.00;96992.75;4864046;29;20793;-78
2022/04/15 07:47:15;;;;;;;18.17;16.30;;;;;;;10.82;100.00;97025.00;4863612;29;20435;-78
2022/04/15 07:50:09;;;;;;;18.30;16.10;;;;;;;10.54;100.00;96995.38;4863355;29;20524;-78
2022/04/15 07:52:36;;;;;;;21.70;16.10;;;;;;;10.48;100.00;96997.41;4848415;29;20452;-78
2022/04/15 07:55:12;;;;;;;18.83;16.13;;;;;;;10.89;100.00;97038.53;4864984;29;20443;-78
2022/04/15 07:57:43;;;;;;;19.40;15.27;;;;;;;10.66;100.00;96988.38;4864930;29;20975;-78
2022/04/15 08:00:23;;;;;;;14.40;12.90;;;;;;;10.87;100.00;97033.53;4864173;29;20476;-78
2022/04/15 08:02:51;;;;;;;18.47;15.00;;;;;;;10.82;100.00;97023.13;4863201;29;20461;-78
2022/04/15 08:05:21;;;;;;;16.33;14.77;;;;;;;10.68;100.00;97005.81;4866053;29;20872;-78
2022/04/15 08:07:52;;;;;;;17.70;13.80;;;;;;;10.33;100.00;97032.19;4862873;29;20454;-77
2022/04/15 08:10:20;;;;;;;19.30;14.10;;;;;;;10.33;100.00;97043.53;4877040;29;20469;-78
2022/04/15 08:12:54;;;;;;;16.70;15.00;;;;;;;10.33;100.00;97034.84;4870450;29;20442;-78
2022/04/15 08:15:26;;;;;;;16.07;14.43;;;;;;;10.17;100.00;97018.59;4864970;29;20468;-78
2022/04/15 08:18:31;;;;;;;14.87;13.43;;;;;;;10.85;100.00;97040.25;4862808;29;20505;-78
2022/04/15 08:21:03;;;;;;;14.87;12.77;;;;;;;11.11;100.00;97032.31;4853646;29;20438;-78
2022/04/15 08:23:52;;;;;;;15.07;13.60;;;;;;;11.11;100.00;97027.03;4862303;29;20431;-78
2022/04/15 08:26:49;;;;;;;14.43;13.03;;;;;;;11.03;100.00;97054.25;4863552;29;20541;-78
2022/04/15 08:29:17;;;;;;;15.63;14.07;;;;;;;11.57;100.00;97036.94;4860763;29;20488;-78
2022/04/15 08:31:51;;;;;;;14.93;13.27;;;;;;;11.82;100.00;97019.44;4861620;29;20469;-78
2022/04/15 08:34:42;;;;;;;13.73;12.33;;;;;;;12.00;100.00;97018.28;4862323;29;20433;-78
2022/04/15 08:37:09;;;;;;;15.00;13.60;;;;;;;12.46;100.00;97048.50;4808512;29;20618;-78
2022/04/15 08:39:37;;;;;;;16.83;14.60;;;;;;;12.55;100.00;97038.63;4823508;29;20467;-78
2022/04/15 08:42:09;;;;;;;16.00;14.53;;;;;;;12.87;100.00;97050.44;4804702;29;20508;-76
2022/04/15 08:44:40;;;;;;;16.70;15.07;;;;;;;12.76;100.00;97051.16;4807253;29;21047;-76
2022/04/15 08:47:19;;;;;;;14.97;13.47;;;;;;;12.33;100.00;97023.00;4822287;29;20440;-76
2022/04/15 08:49:49;;;;;;;15.20;13.60;;;;;;;12.35;100.00;97044.66;4821517;29;20465;-77
2022/04/15 08:52:23;;;;;;;16.80;15.10;;;;;;;12.12;100.00;97021.03;4807615;29;20459;-76
2022/04/15 08:55:07;;;;;;;16.00;13.80;;;;;;;12.44;100.00;97026.84;4822774;29;20443;-77
2022/04/15 08:57:46;;;;;;;16.90;15.17;;;;;;;12.23;100.00;97047.22;4823481;29;20593;-76
2022/04/15 09:00:16;;;;;;;15.83;14.33;;;;;;;12.38;100.00;97023.56;4808904;29;20478;-76
2022/04/15 09:03:03;;;;;;;15.83;14.13;;;;;;;12.53;100.00;97038.16;4824053;29;20531;-76
2022/04/15 09:05:35;;;;;;;15.30;13.80;;;;;;;12.32;100.00;97029.41;4821565;29;20471;-76
2022/04/15 09:08:14;;;;;;;17.03;15.23;;;;;;;12.53;100.00;97054.06;4811608;29;20837;-76
2022/04/15 09:10:59;;;;;;;15.97;14.30;;;;;;;12.50;100.00;97025.53;4820021;29;20499;-76
2022/04/15 09:13:40;;;;;;;16.30;14.77;;;;;;;12.86;100.00;97032.19;4829161;29;20545;-76
2022/04/15 09:16:11;;;;;;;14.67;13.17;;;;;;;12.62;100.00;97057.47;4858728;29;20553;-77
2022/04/15 09:18:51;;;;;;;12.83;11.57;;;;;;;12.53;100.00;97018.81;4859235;29;20468;-78
2022/04/15 09:21:24;;;;;;;13.27;11.73;;;;;;;12.81;100.00;97029.72;4845882;29;20492;-77
2022/04/15 09:23:58;;;;;;;11.87;9.80;;;;;;;13.21;100.00;97057.41;4848042;29;20444;-78
2022/04/15 09:26:29;;;;;;;10.60;9.67;;;;;;;12.82;100.00;97036.56;4867727;29;20441;-76
2022/04/15 09:28:56;;;;;;;14.60;10.57;;;;;;;13.15;100.00;97060.56;4859128;29;20907;-76
2022/04/15 09:31:24;;;;;;;10.90;9.40;;;;;;;13.07;100.00;97032.19;4859128;29;20903;-76
2022/04/15 09:33:57;;;;;;;12.70;10.23;;;;;;;13.27;100.00;97055.34;4858923;29;20468;-76
2022/04/15 09:36:29;;;;;;;12.67;9.03;;;;;;;12.72;100.00;97022.59;4859047;29;20437;-75
2022/04/15 09:39:19;;;;;;;13.27;11.83;;;;;;;13.21;100.00;97051.31;4858792;29;20466;-75
2022/04/15 09:41:48;;;;;;;11.17;9.77;;;;;;;13.65;100.00;97049.84;4849599;29;20486;-76
2022/04/15 09:44:15;;;;;;;12.30;11.10;;;;;;;13.43;100.00;97032.38;4856059;29;20996;-76
2022/04/15 09:46:44;;;;;;;8.70;7.90;;;;;;;13.47;100.00;97040.47;4858562;29;20863;-75
2022/04/15 09:49:12;;;;;;;10.17;9.07;;;;;;;13.49;100.00;97049.69;4859605;29;20487;-75
2022/04/15 09:51:51;;;;;;;8.80;7.90;;;;;;;13.31;100.00;97048.28;4859939;29;20437;-75
2022/04/15 09:54:25;;;;;;;8.73;7.83;;;;;;;13.49;100.00;97048.91;4859681;29;20434;-75
2022/04/15 09:56:58;;;;;;;10.90;9.90;;;;;;;13.36;100.00;97042.78;4843076;29;21029;-76
2022/04/15 09:59:29;;;;;;;13.77;9.50;;;;;;;12.91;100.00;97002.81;4826194;29;20618;-75
2022/04/15 10:01:57;;;;;;;11.73;9.37;;;;;;;13.07;100.00;97048.13;4851473;29;20514;-75
2022/04/15 10:04:25;;;;;;;12.53;10.40;;;;;;;12.85;100.00;97034.06;4858363;29;20456;-75
2022/04/15 10:06:53;;;;;;;12.90;11.60;;;;;;;13.07;100.00;97040.16;4858363;29;20445;-75
2022/04/15 10:09:21;;;;;;;14.80;12.60;;;;;;;13.09;100.00;97041.41;4870322;29;21043;-75
2022/04/15 10:11:49;;;;;;;12.87;11.57;;;;;;;13.14;100.00;97038.53;4873796;29;20446;-75
2022/04/15 10:14:17;;;;;;;13.30;12.00;;;;;;;12.23;100.00;96979.06;4859473;29;20792;-75
2022/04/15 10:16:44;;;;;;;15.03;13.70;;;;;;;12.86;100.00;97043.59;4857828;29;20993;-75
2022/04/15 10:19:11;;;;;;;13.60;12.47;;;;;;;12.82;100.00;97026.78;4858129;29;20503;-76
2022/04/15 10:21:44;;;;;;;14.20;12.73;;;;;;;13.19;100.00;97029.63;4858746;29;20457;-75
2022/04/15 10:24:12;;;;;;;13.57;12.27;;;;;;;13.07;100.00;97026.88;4858161;29;20800;-75
2022/04/15 10:26:44;;;;;;;12.20;11.10;;;;;;;13.29;100.00;97035.31;4857780;29;21152;-75
2022/04/15 10:29:12;;;;;;;12.30;11.20;;;;;;;13.35;100.00;97038.53;4859100;29;20540;-76
2022/04/15 10:31:40;;;;;;;12.20;10.87;;;;;;;13.28;100.00;97036.41;4858113;29;20457;-75
2022/04/15 10:34:10;;;;;;;11.17;10.07;;;;;;;13.19;100.00;97033.06;4858068;29;20518;-75
2022/04/15 10:36:38;;;;;;;11.90;10.23;;;;;;;12.86;100.00;96993.16;4858031;29;20477;-75
2022/04/15 10:39:06;;;;;;;11.80;10.60;;;;;;;12.99;100.00;97026.63;4858609;29;21055;-75
2022/04/15 10:41:42;;;;;;;12.60;9.87;;;;;;;13.41;100.00;97031.16;4858608;29;20442;-75
2022/04/15 10:44:29;;;;;;;11.90;10.40;;;;;;;13.65;100.00;97028.59;4859863;29;20429;-75
2022/04/15 10:47:03;;;;;;;13.17;10.27;;;;;;;13.19;100.00;96998.53;4842605;29;20958;-77
2022/04/15 10:49:34;;;;;;;8.60;7.80;;;;;;;13.24;100.00;96952.44;4873511;29;20791;-75
2022/04/15 10:52:03;;;;;;;10.70;7.57;;;;;;;13.70;100.00;97036.34;4858174;29;20505;-75
2022/04/15 10:54:34;;;;;;;7.83;7.13;;;;;;;13.97;100.00;97032.28;4857985;29;20971;-75
2022/04/15 10:57:10;;;;;;;9.23;8.43;;;;;;;14.16;100.00;97029.91;4857563;29;20572;-75
2022/04/15 11:02:55;;;;;;;7.40;6.43;;;;;;;13.66;100.00;97027.47;4873514;29;20460;-75
2022/04/15 11:05:33;;;;;;;6.30;5.80;;;;;;;13.85;100.00;97042.91;4857378;29;20454;-75
2022/04/15 11:08:10;;;;;;;7.10;6.40;;;;;;;13.38;100.00;97008.69;4850605;29;20434;-75
2022/04/15 11:10:41;;;;;;;6.87;6.27;;;;;;;13.68;100.00;97043.09;4856026;29;20462;-76
2022/04/15 11:13:34;;;;;;;8.00;6.70;;;;;;;14.44;100.00;97030.03;4842757;29;20445;-76
2022/04/15 11:16:14;;;;;;;8.43;6.57;;;;;;;14.76;100.00;97031.00;4862876;29;20457;-76
2022/04/15 11:18:59;;;;;;;7.37;6.70;;;;;;;14.65;100.00;97016.59;4858803;29;20477;-76
2022/04/15 11:21:31;;;;;;;6.90;6.30;;;;;;;15.61;100.00;97013.19;4859020;29;20453;-75
2022/04/15 11:24:04;;;;;;;6.10;5.30;;;;;;;16.03;100.00;97026.06;4863718;29;20426;-75
2022/04/15 11:26:34;;;;;;;7.43;6.77;;;;;;;15.42;100.00;96997.81;4848354;29;21037;-75
2022/04/15 11:29:03;;;;;;;5.70;5.20;;;;;;;14.66;100.00;96977.44;4863293;29;20542;-75
2022/04/15 11:31:37;;;;;;;6.43;5.33;;;;;;;14.67;100.00;97027.66;4861149;29;20991;-75
2022/04/15 11:34:06;;;;;;;6.00;5.10;;;;;;;14.48;100.00;97025.59;4848350;29;20540;-75
2022/04/15 11:36:36;;;;;;;6.13;4.93;;;;;;;13.94;100.00;97018.91;4840697;29;20446;-76
2022/04/15 11:39:05;;;;;;;5.97;5.40;;;;;;;14.12;100.00;96980.34;4842491;29;20838;-75
2022/04/15 11:41:33;;;;;;;5.07;4.33;;;;;;;15.20;100.00;97039.09;4860044;29;20732;-75
2022/04/15 11:44:02;;;;;;;4.03;3.50;;;;;;;15.28;100.00;96997.44;4862206;29;20451;-75
2022/04/15 11:46:35;;;;;;;4.07;3.30;;;;;;;15.15;97.58;97034.00;4860853;29;20533;-75